Time;durP1;ratioP1;P1;durP2;ratioP2;P2;SDS_P1;SDS_P2;PMS_P1;PMS_P2;Temp;Humidity;BMP_temperature;BMP_pressure;BME280_temperature;BME280_humidity;BME280_pressure;Samples;Min_cycle;Max_cycle;Signal;HPM_P1;HPM_P2
2021/04/24 00:01:31;;;;;;;13.73;7.53;;;7.20;99.90;;;;;;5074739;28;20203;-69
2021/04/24 00:03:58;;;;;;;11.40;7.20;;;7.20;99.90;;;;;;5074824;28;20172;-69
2021/04/24 00:06:25;;;;;;;11.10;7.47;;;7.20;99.90;;;;;;5074758;28;20394;-69
2021/04/24 00:08:51;;;;;;;9.57;7.43;;;7.20;99.90;;;;;;5074635;28;20421;-69
2021/04/24 00:11:17;;;;;;;10.13;6.67;;;7.20;99.90;;;;;;5075326;28;20444;-69
2021/04/24 00:13:42;;;;;;;13.13;8.17;;;7.20;99.90;;;;;;5074817;28;20244;-69
2021/04/24 00:16:08;;;;;;;14.00;7.50;;;7.10;99.90;;;;;;5074435;28;20428;-69
2021/04/24 00:18:33;;;;;;;10.13;6.83;;;7.10;99.90;;;;;;5074247;28;20244;-69
2021/04/24 00:20:59;;;;;;;9.80;7.17;;;7.00;99.90;;;;;;5074185;28;20199;-69
2021/04/24 00:23:25;;;;;;;11.77;7.77;;;7.00;99.90;;;;;;5074393;28;20194;-69
2021/04/24 00:25:50;;;;;;;7.93;6.27;;;7.00;99.90;;;;;;5074388;28;20497;-69
2021/04/24 00:28:16;;;;;;;8.60;6.37;;;7.00;99.90;;;;;;5074802;28;20171;-69
2021/04/24 00:30:42;;;;;;;7.63;5.60;;;7.00;99.90;;;;;;5074447;28;20172;-69
2021/04/24 00:33:08;;;;;;;11.07;7.40;;;6.90;99.90;;;;;;5074110;28;20559;-69
2021/04/24 00:35:34;;;;;;;9.10;6.37;;;6.90;99.90;;;;;;5074345;28;20447;-69
2021/04/24 00:38:00;;;;;;;10.17;7.53;;;6.90;99.90;;;;;;5074073;28;20484;-69
2021/04/24 00:40:26;;;;;;;9.43;7.27;;;6.90;99.90;;;;;;5074044;28;20968;-69
2021/04/24 00:42:51;;;;;;;10.83;6.70;;;6.80;99.90;;;;;;5074022;28;20395;-69
2021/04/24 00:45:20;;;;;;;8.97;6.23;;;6.80;99.90;;;;;;5090892;28;20250;-69
2021/04/24 00:47:46;;;;;;;10.57;6.33;;;6.80;99.90;;;;;;5094162;28;20250;-69
2021/04/24 00:50:14;;;;;;;8.93;6.90;;;6.70;99.90;;;;;;5094086;28;20827;-69
2021/04/24 00:52:40;;;;;;;8.20;6.77;;;6.70;99.90;;;;;;5094038;28;20486;-69
2021/04/24 00:55:06;;;;;;;9.83;6.60;;;6.70;99.90;;;;;;5094109;28;20889;-69
2021/04/24 00:57:33;;;;;;;8.80;6.60;;;6.60;99.90;;;;;;5094006;28;20396;-69
2021/04/24 00:59:59;;;;;;;8.67;6.10;;;6.60;99.90;;;;;;5093668;28;20455;-69
2021/04/24 01:02:25;;;;;;;9.03;6.53;;;6.60;99.90;;;;;;5093046;28;20409;-69
2021/04/24 01:04:51;;;;;;;13.97;6.80;;;6.50;99.90;;;;;;5093791;28;20209;-69
2021/04/24 01:07:16;;;;;;;10.27;6.77;;;6.50;99.90;;;;;;5093473;28;20228;-69
2021/04/24 01:09:42;;;;;;;17.50;7.33;;;6.50;99.90;;;;;;5094168;28;20881;-69
2021/04/24 01:12:08;;;;;;;8.60;7.17;;;6.50;99.90;;;;;;5093946;28;20219;-69
2021/04/24 01:14:34;;;;;;;9.30;6.70;;;6.40;99.90;;;;;;5094009;28;20170;-69
2021/04/24 01:16:59;;;;;;;11.73;7.00;;;6.40;99.90;;;;;;5093561;28;20400;-69
2021/04/24 01:19:26;;;;;;;11.97;7.10;;;6.40;99.90;;;;;;5092752;28;20730;-69
2021/04/24 01:22:01;;;;;;;9.90;7.00;;;6.30;99.90;;;;;;5093477;28;20272;-69
2021/04/24 01:24:27;;;;;;;11.70;6.90;;;6.30;99.90;;;;;;5093611;28;20389;-69
2021/04/24 01:26:53;;;;;;;8.13;6.03;;;6.30;99.90;;;;;;5093517;28;20399;-69
2021/04/24 01:29:19;;;;;;;10.80;6.17;;;6.20;99.90;;;;;;5083045;28;20530;-69
2021/04/24 01:31:44;;;;;;;10.17;6.10;;;6.20;99.90;;;;;;5073220;28;20485;-69
2021/04/24 01:34:10;;;;;;;11.70;7.03;;;6.20;99.90;;;;;;5073349;28;20160;-69
2021/04/24 01:36:36;;;;;;;8.60;5.63;;;6.20;99.90;;;;;;5073253;28;20203;-69
2021/04/24 01:39:04;;;;;;;8.00;5.77;;;6.20;99.90;;;;;;5073271;28;20241;-69
2021/04/24 01:41:29;;;;;;;12.70;5.87;;;6.20;99.90;;;;;;5072919;28;20196;-69
2021/04/24 01:43:56;;;;;;;11.60;6.00;;;6.10;99.90;;;;;;5073033;28;20396;-69
2021/04/24 01:46:23;;;;;;;8.10;4.67;;;6.10;99.90;;;;;;5073086;28;20170;-69
2021/04/24 01:48:48;;;;;;;7.77;5.50;;;6.10;99.90;;;;;;5072752;28;20876;-69
2021/04/24 01:51:14;;;;;;;8.63;5.70;;;6.10;99.90;;;;;;5073490;28;20400;-69
2021/04/24 01:53:40;;;;;;;10.53;5.60;;;6.10;99.90;;;;;;5073199;28;20170;-69
2021/04/24 01:56:08;;;;;;;9.60;5.03;;;6.00;99.90;;;;;;5072745;28;20211;-69
2021/04/24 01:58:34;;;;;;;9.43;5.73;;;6.00;99.90;;;;;;5072866;28;20452;-69
2021/04/24 02:01:04;;;;;;;9.77;5.83;;;6.00;99.90;;;;;;5072452;28;20465;-69
2021/04/24 02:03:29;;;;;;;6.10;4.70;;;5.90;99.90;;;;;;5072790;28;20161;-69
2021/04/24 02:05:56;;;;;;;9.63;5.47;;;5.90;99.90;;;;;;5072854;28;20398;-69
2021/04/24 02:08:24;;;;;;;7.33;5.00;;;5.90;99.90;;;;;;5073786;28;20161;-69
2021/04/24 02:10:54;;;;;;;6.63;4.20;;;5.80;99.90;;;;;;5073107;28;20879;-69
2021/04/24 02:13:26;;;;;;;8.60;4.60;;;5.80;99.90;;;;;;5072765;28;20404;-69
2021/04/24 02:15:51;;;;;;;7.90;4.53;;;5.80;99.90;;;;;;5072679;28;20436;-69
2021/04/24 02:18:17;;;;;;;7.30;5.20;;;5.80;99.90;;;;;;5072752;28;20404;-69
2021/04/24 02:20:44;;;;;;;8.23;4.70;;;5.80;99.90;;;;;;5072650;28;20192;-69
2021/04/24 02:23:11;;;;;;;8.17;5.00;;;5.80;99.90;;;;;;5073084;28;20401;-69
2021/04/24 02:25:38;;;;;;;10.87;5.23;;;5.80;99.90;;;;;;5073092;28;20554;-69
2021/04/24 02:28:04;;;;;;;8.10;5.27;;;5.70;99.90;;;;;;5072506;28;20414;-69
2021/04/24 02:30:30;;;;;;;5.63;4.97;;;5.70;99.90;;;;;;5072640;28;20837;-69
2021/04/24 02:32:55;;;;;;;9.40;5.43;;;5.70;99.90;;;;;;5073081;28;20393;-69
2021/04/24 02:35:46;;;;;;;10.37;5.50;;;5.60;99.90;;;;;;5072548;28;20226;-69
2021/04/24 02:38:16;;;;;;;9.03;4.60;;;5.70;99.90;;;;;;5072930;28;20164;-69
2021/04/24 02:40:42;;;;;;;8.47;4.77;;;5.60;99.90;;;;;;5072396;28;20542;-69
2021/04/24 02:43:07;;;;;;;6.03;3.33;;;5.60;99.90;;;;;;5080688;28;21013;-69
2021/04/24 02:45:33;;;;;;;8.80;4.87;;;5.60;99.90;;;;;;5092614;28;20192;-69
2021/04/24 02:47:59;;;;;;;9.90;4.23;;;5.60;99.90;;;;;;5092619;28;20236;-69
2021/04/24 02:50:24;;;;;;;8.40;5.50;;;5.60;99.90;;;;;;5092639;28;20170;-69
2021/04/24 02:52:50;;;;;;;6.93;4.60;;;5.60;99.90;;;;;;5092865;28;20169;-69
2021/04/24 02:55:17;;;;;;;6.33;3.80;;;5.60;99.90;;;;;;5092338;28;20634;-69
2021/04/24 02:57:43;;;;;;;5.70;4.30;;;5.50;99.90;;;;;;5092736;28;20664;-69
2021/04/24 03:00:10;;;;;;;7.43;4.60;;;5.50;99.90;;;;;;5091786;28;20560;-70
2021/04/24 03:02:36;;;;;;;9.50;6.10;;;5.50;99.90;;;;;;5092259;28;20176;-70
2021/04/24 03:05:07;;;;;;;6.43;5.83;;;5.40;99.90;;;;;;5092450;28;20404;-70
2021/04/24 03:07:33;;;;;;;6.87;5.60;;;5.40;99.90;;;;;;5093127;28;20257;-70
2021/04/24 03:09:58;;;;;;;7.03;4.77;;;5.40;99.90;;;;;;5096180;28;20476;-70
2021/04/24 03:12:24;;;;;;;13.23;4.63;;;5.40;99.90;;;;;;5095966;28;20515;-70
2021/04/24 03:14:49;;;;;;;6.43;4.97;;;5.40;99.90;;;;;;5096011;28;20161;-70
2021/04/24 03:17:15;;;;;;;7.03;4.50;;;5.40;99.90;;;;;;5095178;28;20658;-70
2021/04/24 03:19:40;;;;;;;8.23;4.87;;;5.30;99.90;;;;;;5096119;28;20175;-70
2021/04/24 03:22:06;;;;;;;10.77;5.60;;;5.30;99.90;;;;;;5095931;28;20181;-70
2021/04/24 03:24:31;;;;;;;7.47;5.00;;;5.30;99.90;;;;;;5095851;28;20522;-70
2021/04/24 03:26:57;;;;;;;7.30;5.30;;;5.30;99.90;;;;;;5095890;28;20163;-70
2021/04/24 03:29:22;;;;;;;9.67;5.60;;;5.30;99.90;;;;;;5084872;28;20642;-70
2021/04/24 03:31:48;;;;;;;11.37;5.60;;;5.30;99.90;;;;;;5075453;28;20167;-70
2021/04/24 03:34:13;;;;;;;5.53;4.40;;;5.30;99.90;;;;;;5076315;28;20177;-70
2021/04/24 03:36:39;;;;;;;9.87;4.87;;;5.30;99.90;;;;;;5075590;28;20659;-70
2021/04/24 03:39:04;;;;;;;7.23;5.40;;;5.30;99.90;;;;;;5075393;28;20160;-70
2021/04/24 03:41:31;;;;;;;12.37;5.77;;;5.30;99.90;;;;;;5075080;28;20184;-70
2021/04/24 03:43:56;;;;;;;7.77;5.17;;;5.30;99.90;;;;;;5075176;28;20514;-70
2021/04/24 03:46:22;;;;;;;8.23;5.47;;;5.30;99.90;;;;;;5075444;28;20395;-70
2021/04/24 03:48:48;;;;;;;10.90;5.43;;;5.30;99.90;;;;;;5075109;28;20165;-70
2021/04/24 03:51:13;;;;;;;12.77;5.03;;;5.20;99.90;;;;;;5075915;28;20424;-70
2021/04/24 03:53:39;;;;;;;13.20;6.00;;;5.20;99.90;;;;;;5075293;28;20622;-70
2021/04/24 03:56:04;;;;;;;9.33;5.70;;;5.20;99.90;;;;;;5075211;28;20170;-70
2021/04/24 03:58:30;;;;;;;9.23;6.00;;;5.20;99.90;;;;;;5075193;28;20193;-70
2021/04/24 04:00:56;;;;;;;12.40;5.57;;;5.20;99.90;;;;;;5074765;28;20225;-70
2021/04/24 04:03:22;;;;;;;10.70;5.87;;;5.20;99.90;;;;;;5074962;28;20158;-70
2021/04/24 04:05:48;;;;;;;8.80;5.70;;;5.20;99.90;;;;;;5076102;28;20528;-71
2021/04/24 04:08:14;;;;;;;9.93;6.03;;;5.10;99.90;;;;;;5075401;28;20226;-70
2021/04/24 04:10:42;;;;;;;12.63;6.43;;;5.10;99.90;;;;;;5074783;28;20403;-70
2021/04/24 04:13:09;;;;;;;15.13;6.00;;;5.10;99.90;;;;;;5074556;28;20398;-70
2021/04/24 04:15:35;;;;;;;9.83;6.93;;;5.10;99.90;;;;;;5074559;28;20483;-70
2021/04/24 04:18:20;;;;;;;10.93;5.73;;;5.10;99.90;;;;;;5074610;28;20920;-70
2021/04/24 04:20:49;;;;;;;12.87;7.33;;;5.10;99.90;;;;;;5074633;28;20875;-71
2021/04/24 04:23:15;;;;;;;8.20;5.83;;;5.10;99.90;;;;;;5074649;28;20941;-70
2021/04/24 04:25:42;;;;;;;10.90;6.83;;;5.10;99.90;;;;;;5074921;28;20905;-70
2021/04/24 04:28:08;;;;;;;10.87;5.83;;;5.10;99.90;;;;;;5074105;28;20401;-70
2021/04/24 04:30:36;;;;;;;6.23;5.13;;;5.10;99.90;;;;;;5074437;28;20397;-70
2021/04/24 04:33:02;;;;;;;13.00;6.27;;;5.10;99.90;;;;;;5074270;28;20401;-70
2021/04/24 04:35:28;;;;;;;10.03;5.70;;;5.10;99.90;;;;;;5075545;28;20418;-70
2021/04/24 04:37:54;;;;;;;9.40;6.43;;;5.10;99.90;;;;;;5074199;28;20403;-70
2021/04/24 04:40:20;;;;;;;9.50;5.87;;;5.10;99.90;;;;;;5074035;28;20247;-70
2021/04/24 04:42:46;;;;;;;12.83;5.27;;;5.00;99.90;;;;;;5087804;28;20492;-70
2021/04/24 04:45:14;;;;;;;8.83;5.47;;;5.10;99.90;;;;;;5094471;28;20502;-70
2021/04/24 04:47:40;;;;;;;11.03;7.80;;;5.00;99.90;;;;;;5094263;28;20392;-70
2021/04/24 04:50:08;;;;;;;8.70;5.83;;;5.00;99.90;;;;;;5095070;28;20795;-70
2021/04/24 04:52:34;;;;;;;6.73;5.50;;;5.10;99.90;;;;;;5094180;28;20238;-70
2021/04/24 04:55:00;;;;;;;11.13;6.67;;;5.10;99.90;;;;;;5094008;28;20433;-70
2021/04/24 04:57:25;;;;;;;13.20;7.07;;;5.10;99.90;;;;;;5094115;28;20162;-70
2021/04/24 04:59:51;;;;;;;8.20;6.60;;;5.10;99.90;;;;;;5092879;28;20684;-70
2021/04/24 05:02:16;;;;;;;15.53;6.87;;;5.20;99.90;;;;;;5094119;28;20211;-70
2021/04/24 05:04:43;;;;;;;8.50;6.17;;;5.20;99.90;;;;;;5094779;28;20151;-70
2021/04/24 05:07:08;;;;;;;10.90;7.60;;;5.20;99.90;;;;;;5093891;28;20151;-70
2021/04/24 05:09:34;;;;;;;10.20;6.30;;;5.20;99.90;;;;;;5093909;28;20472;-70
2021/04/24 05:11:59;;;;;;;10.87;7.57;;;5.20;99.90;;;;;;5093967;28;20719;-70
2021/04/24 05:14:25;;;;;;;7.93;6.80;;;5.30;99.90;;;;;;5093833;28;20155;-70
2021/04/24 05:16:50;;;;;;;8.93;6.37;;;5.40;99.90;;;;;;5093138;28;20184;-70
2021/04/24 05:19:16;;;;;;;14.23;5.90;;;5.40;99.90;;;;;;5094632;28;20169;-70
2021/04/24 05:21:42;;;;;;;13.43;6.73;;;5.40;99.90;;;;;;5093673;28;20285;-70
2021/04/24 05:24:08;;;;;;;10.40;6.20;;;5.50;99.90;;;;;;5093645;28;20165;-70
2021/04/24 05:26:33;;;;;;;16.27;6.27;;;5.50;99.90;;;;;;5093752;28;20162;-70
2021/04/24 05:28:59;;;;;;;10.73;6.00;;;5.50;99.90;;;;;;5086041;28;20959;-70
2021/04/24 05:31:26;;;;;;;10.23;5.80;;;5.50;99.90;;;;;;5073280;28;20161;-70
2021/04/24 05:33:52;;;;;;;12.87;5.67;;;5.50;99.90;;;;;;5074577;28;20181;-70
2021/04/24 05:36:19;;;;;;;10.80;6.30;;;5.60;99.90;;;;;;5073257;28;20760;-70
2021/04/24 05:38:45;;;;;;;10.70;6.40;;;5.50;99.90;;;;;;5073261;28;20400;-70
2021/04/24 05:41:13;;;;;;;9.90;6.03;;;5.60;99.90;;;;;;5073125;28;20558;-70
2021/04/24 05:43:41;;;;;;;18.40;6.37;;;5.60;99.90;;;;;;5073172;28;20182;-70
2021/04/24 05:46:06;;;;;;;10.17;6.73;;;5.70;99.90;;;;;;5073493;28;20435;-70
2021/04/24 05:48:32;;;;;;;11.23;6.00;;;5.70;99.90;;;;;;5073665;28;20393;-70
2021/04/24 05:50:59;;;;;;;15.50;6.40;;;5.80;99.90;;;;;;5073924;28;20194;-70
2021/04/24 05:53:24;;;;;;;10.70;6.40;;;5.90;99.90;;;;;;5073107;28;20163;-70
2021/04/24 05:55:50;;;;;;;10.30;6.27;;;5.90;99.90;;;;;;5073296;28;20449;-71
2021/04/24 05:58:15;;;;;;;9.03;6.93;;;5.90;99.90;;;;;;5072970;28;20246;-70
2021/04/24 06:00:41;;;;;;;13.00;8.40;;;6.00;99.90;;;;;;5073180;28;20209;-70
2021/04/24 06:03:07;;;;;;;13.50;7.37;;;6.00;99.90;;;;;;5073832;28;20167;-70
2021/04/24 06:05:33;;;;;;;9.00;6.40;;;6.10;99.90;;;;;;5073042;28;20900;-70
2021/04/24 06:07:58;;;;;;;10.60;6.80;;;6.10;99.90;;;;;;5073545;28;20181;-70
2021/04/24 06:10:24;;;;;;;9.87;7.00;;;6.20;99.90;;;;;;5073048;28;20231;-70
2021/04/24 06:12:50;;;;;;;9.33;5.93;;;6.20;99.90;;;;;;5072779;28;20172;-70
2021/04/24 06:15:19;;;;;;;10.37;6.83;;;6.30;99.90;;;;;;5073388;28;20163;-70
2021/04/24 06:17:45;;;;;;;10.40;6.10;;;6.40;99.90;;;;;;5073086;28;20909;-70
2021/04/24 06:20:12;;;;;;;10.97;6.47;;;6.50;99.90;;;;;;5072738;28;20458;-70
2021/04/24 06:22:38;;;;;;;10.63;6.53;;;6.50;99.90;;;;;;5072830;28;20250;-70
2021/04/24 06:25:06;;;;;;;10.10;6.17;;;6.60;99.90;;;;;;5073473;28;20419;-70
2021/04/24 06:27:32;;;;;;;13.23;7.27;;;6.70;99.90;;;;;;5072923;28;20398;-70
2021/04/24 06:29:57;;;;;;;10.17;6.30;;;6.70;99.90;;;;;;5072983;28;20432;-71
2021/04/24 06:32:23;;;;;;;12.63;6.63;;;6.80;99.90;;;;;;5073265;28;20546;-70
2021/04/24 06:34:48;;;;;;;14.97;7.10;;;6.80;99.90;;;;;;5072850;28;20580;-70
2021/04/24 06:37:14;;;;;;;11.90;7.37;;;6.90;99.90;;;;;;5072674;28;20246;-70
2021/04/24 06:39:39;;;;;;;10.40;6.77;;;6.90;99.90;;;;;;5072569;28;20251;-70
2021/04/24 06:42:05;;;;;;;11.73;7.13;;;7.00;99.90;;;;;;5088432;28;20629;-70
2021/04/24 06:44:32;;;;;;;12.87;6.93;;;7.00;99.90;;;;;;5096901;28;20165;-71
2021/04/24 06:46:58;;;;;;;9.50;6.93;;;7.00;99.90;;;;;;5097167;28;20167;-70
2021/04/24 06:49:23;;;;;;;11.13;7.93;;;7.00;99.90;;;;;;5096739;28;20389;-70
2021/04/24 06:51:49;;;;;;;8.33;7.33;;;7.10;99.90;;;;;;5096764;28;20558;-70
2021/04/24 06:54:14;;;;;;;9.40;6.97;;;7.10;99.90;;;;;;5096563;28;20541;-70
2021/04/24 06:56:40;;;;;;;10.40;7.83;;;7.20;99.90;;;;;;5096581;28;20519;-70
2021/04/24 06:59:05;;;;;;;9.70;6.70;;;7.20;99.90;;;;;;5096153;28;20202;-71
2021/04/24 07:01:31;;;;;;;11.33;7.00;;;7.30;99.90;;;;;;5096352;28;20199;-70
2021/04/24 07:03:57;;;;;;;9.07;7.33;;;7.30;99.90;;;;;;5096647;28;20182;-70
2021/04/24 07:06:23;;;;;;;11.90;6.80;;;7.40;99.90;;;;;;5096360;28;20534;-70
2021/04/24 07:08:48;;;;;;;10.87;6.47;;;7.40;99.90;;;;;;5096283;28;20195;-70
2021/04/24 07:11:14;;;;;;;10.13;6.97;;;7.50;99.90;;;;;;5096264;28;20162;-70
2021/04/24 07:13:40;;;;;;;12.93;7.13;;;7.50;99.90;;;;;;5096542;28;20155;-70
2021/04/24 07:16:10;;;;;;;9.27;6.50;;;7.60;99.90;;;;;;5095635;28;20253;-71
2021/04/24 07:18:36;;;;;;;9.10;6.87;;;7.70;99.90;;;;;;5096114;28;20154;-70
2021/04/24 07:21:01;;;;;;;20.07;7.57;;;7.90;99.90;;;;;;5096031;28;20444;-71
2021/04/24 07:23:27;;;;;;;11.10;6.73;;;8.10;99.90;;;;;;5095922;28;20404;-70
2021/04/24 07:25:53;;;;;;;8.73;7.00;;;8.20;99.90;;;;;;5096020;28;20511;-70
2021/04/24 07:28:18;;;;;;;9.30;7.37;;;8.40;99.90;;;;;;5094858;28;20570;-70
2021/04/24 07:30:44;;;;;;;11.47;7.50;;;8.60;99.90;;;;;;5075947;28;20188;-70
2021/04/24 07:33:10;;;;;;;10.33;6.97;;;8.80;99.90;;;;;;5076253;28;20262;-71
2021/04/24 07:35:35;;;;;;;8.37;5.97;;;9.00;99.90;;;;;;5075657;28;20165;-70
2021/04/24 07:38:02;;;;;;;7.53;6.13;;;9.10;99.90;;;;;;5075602;28;20161;-70
2021/04/24 07:40:27;;;;;;;6.97;5.03;;;9.30;99.90;;;;;;5075466;28;20197;-70
2021/04/24 07:42:53;;;;;;;6.73;5.13;;;9.60;99.90;;;;;;5076072;28;20415;-70
2021/04/24 07:45:20;;;;;;;9.83;5.00;;;10.20;99.90;;;;;;5075541;28;20250;-70
2021/04/24 07:47:48;;;;;;;6.67;5.30;;;10.90;98.10;;;;;;5075415;28;20542;-70
2021/04/24 07:50:14;;;;;;;10.00;4.80;;;11.20;95.20;;;;;;5075851;28;20855;-70
2021/04/24 07:52:40;;;;;;;5.13;4.10;;;11.50;95.10;;;;;;5075107;28;20496;-71
2021/04/24 07:55:06;;;;;;;8.57;5.83;;;12.20;92.00;;;;;;5074888;28;20382;-70
2021/04/24 07:57:32;;;;;;;5.97;4.63;;;12.60;88.90;;;;;;5075785;28;20409;-71
2021/04/24 07:59:58;;;;;;;5.80;4.17;;;13.10;83.70;;;;;;5074987;28;20937;-70
2021/04/24 08:02:23;;;;;;;5.70;4.30;;;13.80;78.50;;;;;;5075057;28;20198;-70
2021/04/24 08:04:49;;;;;;;10.50;4.50;;;14.30;72.10;;;;;;5075143;28;20163;-70
2021/04/24 08:07:14;;;;;;;7.77;4.13;;;14.50;68.90;;;;;;5075302;28;20536;-71
2021/04/24 08:09:40;;;;;;;5.53;4.00;;;14.90;66.80;;;;;;5075062;28;20155;-70
2021/04/24 08:12:07;;;;;;;7.17;4.60;;;15.50;64.20;;;;;;5075680;28;20175;-70
2021/04/24 08:14:33;;;;;;;6.30;4.10;;;15.20;60.00;;;;;;5074920;28;20390;-71
2021/04/24 08:16:58;;;;;;;6.00;4.77;;;15.10;60.20;;;;;;5074830;28;20394;-71
2021/04/24 08:19:25;;;;;;;5.20;4.07;;;15.30;59.90;;;;;;5074657;28;20944;-71
2021/04/24 08:21:53;;;;;;;10.73;4.60;;;15.90;59.40;;;;;;5074585;28;20180;-71
2021/04/24 08:24:19;;;;;;;8.13;4.60;;;16.30;57.50;;;;;;5075106;28;20770;-70
2021/04/24 08:26:44;;;;;;;9.73;5.30;;;16.10;57.20;;;;;;5075120;28;20385;-71
2021/04/24 08:29:10;;;;;;;7.53;5.57;;;15.50;57.60;;;;;;5074522;28;20167;-70
2021/04/24 08:31:36;;;;;;;6.87;4.80;;;15.00;58.50;;;;;;5074567;28;20156;-71
2021/04/24 08:34:03;;;;;;;6.37;4.43;;;14.20;58.40;;;;;;5074388;28;20186;-71
2021/04/24 08:36:28;;;;;;;7.57;4.90;;;13.50;60.50;;;;;;5074317;28;20450;-70
2021/04/24 08:38:54;;;;;;;9.77;5.40;;;13.00;63.10;;;;;;5074425;28;20953;-70
2021/04/24 08:41:19;;;;;;;9.10;6.30;;;12.70;65.10;;;;;;5092807;28;20198;-70
2021/04/24 08:43:45;;;;;;;7.47;4.70;;;12.50;65.90;;;;;;5094485;28;20182;-70
2021/04/24 08:46:14;;;;;;;7.53;5.27;;;12.40;67.50;;;;;;5094401;28;20155;-70
2021/04/24 08:48:40;;;;;;;8.13;4.50;;;12.20;69.30;;;;;;5094203;28;20208;-70
2021/04/24 08:51:06;;;;;;;5.90;4.70;;;12.20;70.30;;;;;;5094400;28;20397;-71
2021/04/24 08:53:32;;;;;;;8.43;5.00;;;12.20;70.00;;;;;;5094342;28;20167;-70
2021/04/24 08:55:57;;;;;;;6.13;5.07;;;12.00;70.30;;;;;;5094899;28;20389;-71
2021/04/24 08:58:23;;;;;;;7.30;4.90;;;11.90;71.50;;;;;;5093426;28;20236;-70
2021/04/24 09:00:51;;;;;;;6.53;5.60;;;11.80;72.20;;;;;;5093965;28;20268;-70
2021/04/24 09:03:21;;;;;;;6.27;4.57;;;11.70;72.70;;;;;;5094301;28;20151;-70
2021/04/24 09:05:49;;;;;;;11.97;5.57;;;11.70;72.70;;;;;;5093275;28;20525;-71
2021/04/24 09:08:22;;;;;;;6.23;4.40;;;11.70;73.30;;;;;;5094116;28;20433;-70
2021/04/24 09:10:48;;;;;;;6.40;4.60;;;11.70;74.20;;;;;;5094933;28;20404;-70
2021/04/24 09:13:23;;;;;;;5.77;4.90;;;11.80;74.70;;;;;;5093263;28;20393;-71
2021/04/24 09:15:50;;;;;;;8.40;4.87;;;12.00;73.80;;;;;;5094075;28;20241;-71
2021/04/24 09:18:17;;;;;;;5.50;4.33;;;12.20;72.00;;;;;;5093857;28;20469;-71
2021/04/24 09:23:22;;;;;;;6.97;3.80;;;12.30;70.30;;;;;;5111188;27;20846;-70
2021/04/24 09:25:57;;;;;;;5.23;3.50;;;12.40;68.90;;;;;;5111989;28;20397;-70
2021/04/24 09:28:44;;;;;;;7.03;4.17;;;12.70;68.80;;;;;;5110967;28;20944;-71
2021/04/24 09:33:56;;;;;;;9.03;4.50;;;13.70;65.60;;;;;;5090570;28;20860;-70
2021/04/24 09:36:23;;;;;;;5.70;3.80;;;13.90;63.80;;;;;;5090333;28;20412;-70
2021/04/24 09:38:52;;;;;;;5.40;3.77;;;14.10;62.10;;;;;;5091764;28;20385;-70
2021/04/24 09:41:27;;;;;;;7.47;4.53;;;14.20;61.80;;;;;;5090784;28;20390;-70
2021/04/24 09:46:50;;;;;;;6.03;4.67;;;14.30;60.90;;;;;;5110890;27;20510;-71
2021/04/24 09:52:04;;;;;;;7.33;4.43;;;14.90;59.60;;;;;;5111391;27;20505;-71
2021/04/24 09:54:42;;;;;;;9.83;4.67;;;15.00;59.00;;;;;;5111969;28;20401;-71
2021/04/24 09:57:10;;;;;;;6.27;4.63;;;15.20;58.90;;;;;;5110925;28;20476;-71
2021/04/24 09:59:53;;;;;;;7.43;4.10;;;15.30;58.20;;;;;;5110735;28;20423;-70
2021/04/24 10:02:37;;;;;;;7.80;5.20;;;15.20;57.30;;;;;;5110794;28;20392;-71
2021/04/24 10:05:06;;;;;;;6.67;4.37;;;15.10;57.20;;;;;;5102991;28;20463;-71
2021/04/24 10:07:35;;;;;;;7.83;3.80;;;15.10;57.80;;;;;;5091052;28;20385;-71
2021/04/24 10:10:00;;;;;;;7.93;4.83;;;15.20;58.20;;;;;;5090630;28;21017;-71
2021/04/24 10:12:26;;;;;;;6.70;4.53;;;15.20;57.90;;;;;;5090338;28;20486;-71
2021/04/24 10:14:52;;;;;;;4.63;4.17;;;15.20;57.20;;;;;;5090107;28;20204;-71
2021/04/24 10:17:19;;;;;;;6.73;4.73;;;15.10;57.20;;;;;;5090071;28;20162;-71
2021/04/24 10:19:46;;;;;;;5.60;4.07;;;15.00;57.30;;;;;;5090253;28;20397;-71
2021/04/24 10:22:15;;;;;;;5.70;4.40;;;14.80;56.80;;;;;;5091209;28;20409;-72
2021/04/24 10:24:42;;;;;;;4.50;4.10;;;14.60;57.00;;;;;;5089997;28;20408;-70
2021/04/24 10:27:10;;;;;;;5.77;4.10;;;14.30;56.70;;;;;;5090044;28;20389;-70
2021/04/24 10:29:37;;;;;;;9.10;4.80;;;14.10;56.90;;;;;;5089798;28;20499;-70
2021/04/24 10:32:03;;;;;;;4.80;3.60;;;14.00;57.20;;;;;;5089902;28;20393;-70
2021/04/24 10:34:28;;;;;;;9.90;4.10;;;13.80;57.30;;;;;;5090718;28;20393;-70
2021/04/24 10:36:54;;;;;;;6.50;4.37;;;13.70;57.60;;;;;;5090543;28;20389;-71
2021/04/24 10:44:46;;;;;;;5.40;4.53;;;13.00;59.40;;;;;;5131475;27;21027;-71
2021/04/24 10:47:12;;;;;;;5.27;4.20;;;12.90;59.50;;;;;;5133331;27;20466;-71
2021/04/24 10:49:54;;;;;;;10.40;4.13;;;12.70;58.90;;;;;;5131882;28;20433;-71
2021/04/24 10:52:21;;;;;;;6.50;3.87;;;12.70;59.90;;;;;;5131955;28;20387;-70
2021/04/24 10:55:24;;;;;;;5.80;4.23;;;12.70;60.80;;;;;;5131343;28;20391;-70
2021/04/24 11:03:45;;;;;;;5.87;4.23;;;12.60;59.90;;;;;;5112458;27;20489;-71
2021/04/24 11:08:51;;;;;;;4.57;3.17;;;12.50;62.20;;;;;;5090574;28;20519;-70
2021/04/24 11:11:19;;;;;;;5.53;4.00;;;12.50;61.90;;;;;;5090573;28;20468;-71
2021/04/24 11:13:48;;;;;;;5.50;3.97;;;12.40;61.30;;;;;;5077202;28;20404;-70
2021/04/24 11:16:17;;;;;;;5.70;4.43;;;12.40;62.00;;;;;;5071550;28;20393;-70
2021/04/24 11:18:44;;;;;;;6.83;4.27;;;12.40;61.70;;;;;;5070527;28;20939;-70
2021/04/24 11:21:28;;;;;;;7.20;4.77;;;12.50;62.20;;;;;;5070577;28;20456;-71
2021/04/24 11:40:25;;;;;;;4.40;3.70;;;12.50;60.40;;;;;;5110890;27;20907;-71
2021/04/24 11:45:53;;;;;;;4.10;3.70;;;12.60;60.00;;;;;;5132439;27;20508;-71
2021/04/24 11:54:08;;;;;;;6.67;4.40;;;12.80;59.10;;;;;;5111031;27;20928;-70
2021/04/24 11:56:35;;;;;;;4.93;3.70;;;12.70;59.40;;;;;;5110930;28;20393;-70
2021/04/24 11:59:01;;;;;;;5.10;3.70;;;12.60;59.20;;;;;;5111040;28;20960;-70
2021/04/24 12:01:30;;;;;;;5.50;3.77;;;12.70;58.60;;;;;;5110953;28;20419;-71
2021/04/24 12:03:56;;;;;;;6.93;3.90;;;12.70;58.10;;;;;;5104921;28;20407;-70
2021/04/24 12:06:42;;;;;;;5.07;3.57;;;12.70;58.50;;;;;;5090412;28;20378;-70
2021/04/24 12:09:13;;;;;;;4.50;3.90;;;12.80;58.20;;;;;;5089523;28;20386;-70
2021/04/24 12:11:41;;;;;;;5.60;3.87;;;13.00;57.80;;;;;;5090120;28;20389;-70
2021/04/24 12:14:07;;;;;;;5.43;3.87;;;13.00;57.90;;;;;;5090193;28;20423;-70
2021/04/24 12:16:49;;;;;;;4.50;4.10;;;13.00;57.00;;;;;;5090436;28;20762;-70
2021/04/24 12:24:56;;;;;;;7.63;4.10;;;13.00;57.30;;;;;;5110894;27;20544;-71
2021/04/24 12:29:59;;;;;;;6.50;4.90;;;13.10;57.70;;;;;;5110833;27;20510;-70
2021/04/24 12:32:31;;;;;;;5.93;4.47;;;12.90;58.10;;;;;;5111828;28;20881;-70
2021/04/24 12:35:04;;;;;;;6.20;4.27;;;12.80;58.40;;;;;;5110784;28;20404;-70
2021/04/24 12:37:30;;;;;;;8.10;5.30;;;12.70;58.60;;;;;;5106440;28;20878;-71
2021/04/24 12:40:05;;;;;;;6.43;5.10;;;12.70;58.50;;;;;;5090421;28;20389;-71
2021/04/24 12:42:31;;;;;;;6.47;4.90;;;12.70;59.10;;;;;;5090340;28;20462;-71
2021/04/24 12:44:57;;;;;;;6.50;4.50;;;12.80;59.60;;;;;;5090644;28;20798;-70
2021/04/24 12:47:24;;;;;;;7.77;5.07;;;12.90;60.00;;;;;;5090882;28;20191;-70
2021/04/24 12:49:49;;;;;;;5.63;4.47;;;13.00;59.90;;;;;;5090151;28;20448;-70
2021/04/24 12:52:15;;;;;;;7.17;5.20;;;13.10;59.20;;;;;;5090217;28;20389;-70
2021/04/24 12:54:41;;;;;;;6.07;4.90;;;13.10;59.00;;;;;;5089176;28;20541;-70
2021/04/24 12:57:22;;;;;;;8.03;5.60;;;13.20;58.90;;;;;;5090216;28;20382;-70
2021/04/24 13:00:09;;;;;;;8.43;5.10;;;13.40;58.40;;;;;;5090343;28;20194;-70
2021/04/24 13:02:36;;;;;;;6.30;4.90;;;13.40;58.30;;;;;;5089267;28;20876;-71
2021/04/24 13:05:05;;;;;;;6.33;4.90;;;13.50;58.40;;;;;;5089960;28;20401;-70
2021/04/24 13:07:31;;;;;;;8.83;5.33;;;13.60;58.40;;;;;;5089877;28;20507;-70
2021/04/24 13:09:57;;;;;;;7.50;4.80;;;13.60;56.40;;;;;;5090059;28;20500;-70
2021/04/24 13:12:23;;;;;;;6.60;5.10;;;13.70;56.70;;;;;;5089058;28;20316;-70
2021/04/24 13:14:50;;;;;;;9.20;5.30;;;13.80;56.50;;;;;;5090102;28;20787;-70
2021/04/24 13:17:22;;;;;;;6.23;4.60;;;13.80;56.50;;;;;;5089940;28;20401;-70
2021/04/24 13:22:43;;;;;;;5.83;4.70;;;13.90;57.00;;;;;;5152334;27;20498;-71
2021/04/24 13:25:11;;;;;;;8.43;5.20;;;13.80;57.50;;;;;;5152318;27;20382;-71
2021/04/24 13:27:37;;;;;;;6.50;4.47;;;13.80;56.80;;;;;;5152072;27;20378;-71
2021/04/24 13:30:07;;;;;;;9.10;6.30;;;13.80;56.50;;;;;;5152603;27;20442;-71
2021/04/24 13:32:32;;;;;;;10.80;5.83;;;13.80;57.30;;;;;;5151926;27;20773;-71
2021/04/24 13:34:59;;;;;;;6.80;4.83;;;13.80;57.00;;;;;;5151896;27;20387;-71
2021/04/24 13:37:27;;;;;;;5.30;4.30;;;13.90;56.70;;;;;;5151896;27;20244;-71
2021/04/24 13:39:56;;;;;;;6.73;5.17;;;14.00;56.60;;;;;;5151831;27;20461;-71
2021/04/24 13:42:27;;;;;;;6.00;5.40;;;14.10;56.00;;;;;;5151866;27;20405;-71
2021/04/24 13:45:15;;;;;;;9.27;5.33;;;14.10;56.10;;;;;;5152225;27;20409;-71
2021/04/24 13:47:42;;;;;;;5.87;4.43;;;14.10;55.30;;;;;;5136610;27;20418;-71
2021/04/24 13:50:09;;;;;;;6.90;5.50;;;14.10;54.60;;;;;;5151696;27;20397;-71
2021/04/24 13:52:36;;;;;;;6.03;4.87;;;14.20;55.20;;;;;;5151789;27;20447;-71